sensor_id;sensor_type;location;lat;lon;timestamp;P1;durP1;ratioP1;P2;durP2;ratioP2
4943;SDS011;2487;52.224;11.006;2022-09-12T00:02:24;0.40;;;0.40;;
4943;SDS011;2487;52.224;11.006;2022-09-12T00:04:50;0.40;;;0.40;;
4943;SDS011;2487;52.224;11.006;2022-09-12T00:07:16;0.40;;;0.40;;
4943;SDS011;2487;52.224;11.006;2022-09-12T00:09:41;0.40;;;0.40;;
4943;SDS011;2487;52.224;11.006;2022-09-12T00:12:07;0.40;;;0.40;;
4943;SDS011;2487;52.224;11.006;2022-09-12T00:14:33;0.40;;;0.40;;
4943;SDS011;2487;52.224;11.006;2022-09-12T00:16:59;0.40;;;0.40;;
4943;SDS011;2487;52.224;11.006;2022-09-12T00:19:26;0.40;;;0.40;;
4943;SDS011;2487;52.224;11.006;2022-09-12T00:21:53;0.40;;;0.40;;
4943;SDS011;2487;52.224;11.006;2022-09-12T00:24:19;0.40;;;0.40;;
4943;SDS011;2487;52.224;11.006;2022-09-12T00:26:45;0.40;;;0.40;;
4943;SDS011;2487;52.224;11.006;2022-09-12T00:29:15;0.40;;;0.40;;
4943;SDS011;2487;52.224;11.006;2022-09-12T00:31:45;0.40;;;0.40;;
4943;SDS011;2487;52.224;11.006;2022-09-12T00:34:11;0.40;;;0.40;;
4943;SDS011;2487;52.224;11.006;2022-09-12T00:36:38;0.40;;;0.40;;
4943;SDS011;2487;52.224;11.006;2022-09-12T00:39:04;0.40;;;0.40;;
4943;SDS011;2487;52.224;11.006;2022-09-12T00:41:32;0.40;;;0.40;;
4943;SDS011;2487;52.224;11.006;2022-09-12T00:44:49;0.40;;;0.40;;
4943;SDS011;2487;52.224;11.006;2022-09-12T00:49:58;0.40;;;0.40;;
4943;SDS011;2487;52.224;11.006;2022-09-12T00:52:52;0.40;;;0.40;;
4943;SDS011;2487;52.224;11.006;2022-09-12T00:55:19;0.40;;;0.40;;
4943;SDS011;2487;52.224;11.006;2022-09-12T01:00:26;4.93;;;0.77;;
4943;SDS011;2487;52.224;11.006;2022-09-12T01:02:56;0.40;;;0.40;;
4943;SDS011;2487;52.224;11.006;2022-09-12T01:05:24;0.40;;;0.40;;
4943;SDS011;2487;52.224;11.006;2022-09-12T01:07:52;0.40;;;0.40;;
4943;SDS011;2487;52.224;11.006;2022-09-12T01:10:20;0.40;;;0.40;;
4943;SDS011;2487;52.224;11.006;2022-09-12T01:12:47;0.40;;;0.40;;
4943;SDS011;2487;52.224;11.006;2022-09-12T01:15:13;0.40;;;0.40;;
4943;SDS011;2487;52.224;11.006;2022-09-12T01:31:24;0.40;;;0.40;;
4943;SDS011;2487;52.224;11.006;2022-09-12T01:41:39;0.40;;;0.40;;
4943;SDS011;2487;52.224;11.006;2022-09-12T01:52:32;0.40;;;0.40;;
4943;SDS011;2487;52.224;11.006;2022-09-12T01:55:05;0.40;;;0.40;;
4943;SDS011;2487;52.224;11.006;2022-09-12T01:57:38;0.60;;;0.60;;
4943;SDS011;2487;52.224;11.006;2022-09-12T02:00:10;0.40;;;0.40;;
4943;SDS011;2487;52.224;11.006;2022-09-12T02:05:19;0.40;;;0.40;;
4943;SDS011;2487;52.224;11.006;2022-09-12T02:07:51;0.40;;;0.40;;
4943;SDS011;2487;52.224;11.006;2022-09-12T02:10:22;0.37;;;0.37;;
4943;SDS011;2487;52.224;11.006;2022-09-12T02:12:55;1.00;;;0.57;;
4943;SDS011;2487;52.224;11.006;2022-09-12T02:15:35;16.50;;;1.47;;
4943;SDS011;2487;52.224;11.006;2022-09-12T02:18:04;1.23;;;0.87;;
4943;SDS011;2487;52.224;11.006;2022-09-12T02:20:35;0.40;;;0.40;;
4943;SDS011;2487;52.224;11.006;2022-09-12T02:23:03;0.40;;;0.40;;
4943;SDS011;2487;52.224;11.006;2022-09-12T02:25:32;0.40;;;0.40;;
4943;SDS011;2487;52.224;11.006;2022-09-12T02:28:07;6.43;;;1.63;;
4943;SDS011;2487;52.224;11.006;2022-09-12T02:30:38;0.50;;;0.50;;
4943;SDS011;2487;52.224;11.006;2022-09-12T02:33:14;0.50;;;0.50;;
4943;SDS011;2487;52.224;11.006;2022-09-12T02:35:56;2.27;;;0.70;;
4943;SDS011;2487;52.224;11.006;2022-09-12T02:41:07;6.90;;;1.93;;
4943;SDS011;2487;52.224;11.006;2022-09-12T02:43:33;10.37;;;2.00;;
4943;SDS011;2487;52.224;11.006;2022-09-12T02:45:59;6.50;;;0.90;;
4943;SDS011;2487;52.224;11.006;2022-09-12T02:48:30;6.47;;;0.90;;
4943;SDS011;2487;52.224;11.006;2022-09-12T02:51:00;7.20;;;1.10;;
4943;SDS011;2487;52.224;11.006;2022-09-12T02:53:26;10.97;;;1.47;;
4943;SDS011;2487;52.224;11.006;2022-09-12T02:55:53;6.80;;;2.13;;
4943;SDS011;2487;52.224;11.006;2022-09-12T02:58:22;4.30;;;1.00;;
4943;SDS011;2487;52.224;11.006;2022-09-12T03:00:55;0.40;;;0.40;;
4943;SDS011;2487;52.224;11.006;2022-09-12T03:06:15;8.40;;;0.90;;
4943;SDS011;2487;52.224;11.006;2022-09-12T03:19:23;0.60;;;0.60;;
4943;SDS011;2487;52.224;11.006;2022-09-12T03:24:29;8.20;;;0.90;;
4943;SDS011;2487;52.224;11.006;2022-09-12T03:27:10;8.50;;;0.90;;
4943;SDS011;2487;52.224;11.006;2022-09-12T03:29:38;7.10;;;0.90;;
4943;SDS011;2487;52.224;11.006;2022-09-12T03:32:05;13.73;;;0.90;;
4943;SDS011;2487;52.224;11.006;2022-09-12T03:34:31;12.83;;;0.90;;
4943;SDS011;2487;52.224;11.006;2022-09-12T03:36:57;13.57;;;0.90;;
4943;SDS011;2487;52.224;11.006;2022-09-12T03:39:24;19.20;;;1.00;;
4943;SDS011;2487;52.224;11.006;2022-09-12T03:41:51;1.80;;;0.80;;
4943;SDS011;2487;52.224;11.006;2022-09-12T03:44:18;0.50;;;0.50;;
4943;SDS011;2487;52.224;11.006;2022-09-12T03:46:44;0.50;;;0.50;;
4943;SDS011;2487;52.224;11.006;2022-09-12T03:49:10;2.10;;;0.70;;
4943;SDS011;2487;52.224;11.006;2022-09-12T03:51:36;21.30;;;1.00;;
4943;SDS011;2487;52.224;11.006;2022-09-12T03:54:03;14.87;;;0.90;;
4943;SDS011;2487;52.224;11.006;2022-09-12T03:56:29;4.57;;;0.80;;
4943;SDS011;2487;52.224;11.006;2022-09-12T03:58:55;23.50;;;1.10;;
4943;SDS011;2487;52.224;11.006;2022-09-12T04:01:20;5.50;;;0.80;;
4943;SDS011;2487;52.224;11.006;2022-09-12T04:03:47;0.40;;;0.40;;
4943;SDS011;2487;52.224;11.006;2022-09-12T04:06:15;1.20;;;0.80;;
4943;SDS011;2487;52.224;11.006;2022-09-12T04:08:42;12.57;;;1.40;;
4943;SDS011;2487;52.224;11.006;2022-09-12T04:11:09;2.50;;;0.70;;
4943;SDS011;2487;52.224;11.006;2022-09-12T04:13:37;17.17;;;1.93;;
4943;SDS011;2487;52.224;11.006;2022-09-12T04:16:04;19.30;;;1.50;;
4943;SDS011;2487;52.224;11.006;2022-09-12T04:18:31;20.73;;;1.30;;
4943;SDS011;2487;52.224;11.006;2022-09-12T04:21:01;18.30;;;1.00;;
4943;SDS011;2487;52.224;11.006;2022-09-12T04:23:28;19.57;;;1.00;;
4943;SDS011;2487;52.224;11.006;2022-09-12T04:25:54;22.47;;;1.10;;
4943;SDS011;2487;52.224;11.006;2022-09-12T04:28:21;9.87;;;0.90;;
4943;SDS011;2487;52.224;11.006;2022-09-12T04:30:47;10.90;;;0.90;;
4943;SDS011;2487;52.224;11.006;2022-09-12T04:33:14;25.40;;;1.57;;
4943;SDS011;2487;52.224;11.006;2022-09-12T04:35:39;39.93;;;1.40;;
4943;SDS011;2487;52.224;11.006;2022-09-12T04:38:06;28.30;;;1.10;;
4943;SDS011;2487;52.224;11.006;2022-09-12T04:40:32;26.10;;;1.10;;
4943;SDS011;2487;52.224;11.006;2022-09-12T04:42:58;24.80;;;1.07;;
4943;SDS011;2487;52.224;11.006;2022-09-12T04:45:24;26.20;;;1.10;;
4943;SDS011;2487;52.224;11.006;2022-09-12T04:47:50;24.63;;;1.07;;
4943;SDS011;2487;52.224;11.006;2022-09-12T04:50:16;0.50;;;0.50;;
4943;SDS011;2487;52.224;11.006;2022-09-12T04:52:42;0.57;;;0.40;;
4943;SDS011;2487;52.224;11.006;2022-09-12T04:55:08;0.40;;;0.40;;
4943;SDS011;2487;52.224;11.006;2022-09-12T04:57:34;0.30;;;0.30;;
4943;SDS011;2487;52.224;11.006;2022-09-12T05:00:00;0.40;;;0.40;;
4943;SDS011;2487;52.224;11.006;2022-09-12T05:02:29;0.30;;;0.30;;
4943;SDS011;2487;52.224;11.006;2022-09-12T05:04:55;0.40;;;0.40;;
4943;SDS011;2487;52.224;11.006;2022-09-12T05:07:20;0.40;;;0.40;;
4943;SDS011;2487;52.224;11.006;2022-09-12T05:09:46;0.40;;;0.40;;
4943;SDS011;2487;52.224;11.006;2022-09-12T05:12:12;0.40;;;0.40;;
4943;SDS011;2487;52.224;11.006;2022-09-12T05:14:38;0.30;;;0.30;;
4943;SDS011;2487;52.224;11.006;2022-09-12T05:17:04;0.40;;;0.40;;
4943;SDS011;2487;52.224;11.006;2022-09-12T05:19:30;0.40;;;0.40;;
4943;SDS011;2487;52.224;11.006;2022-09-12T05:21:56;0.40;;;0.40;;
4943;SDS011;2487;52.224;11.006;2022-09-12T05:24:23;0.40;;;0.40;;
4943;SDS011;2487;52.224;11.006;2022-09-12T05:26:49;0.40;;;0.40;;
4943;SDS011;2487;52.224;11.006;2022-09-12T05:29:15;0.40;;;0.40;;
4943;SDS011;2487;52.224;11.006;2022-09-12T05:31:40;0.40;;;0.40;;
4943;SDS011;2487;52.224;11.006;2022-09-12T05:34:06;0.33;;;0.33;;
4943;SDS011;2487;52.224;11.006;2022-09-12T05:36:33;0.30;;;0.30;;
4943;SDS011;2487;52.224;11.006;2022-09-12T05:38:59;0.30;;;0.30;;
4943;SDS011;2487;52.224;11.006;2022-09-12T05:41:26;0.40;;;0.40;;
4943;SDS011;2487;52.224;11.006;2022-09-12T05:44:04;0.40;;;0.40;;
4943;SDS011;2487;52.224;11.006;2022-09-12T05:46:37;0.40;;;0.40;;
4943;SDS011;2487;52.224;11.006;2022-09-12T05:49:05;3.53;;;0.60;;
4943;SDS011;2487;52.224;11.006;2022-09-12T05:51:35;0.37;;;0.37;;
4943;SDS011;2487;52.224;11.006;2022-09-12T05:54:04;3.53;;;0.70;;
4943;SDS011;2487;52.224;11.006;2022-09-12T05:56:32;0.50;;;0.50;;
4943;SDS011;2487;52.224;11.006;2022-09-12T05:59:03;0.30;;;0.30;;
4943;SDS011;2487;52.224;11.006;2022-09-12T06:01:31;0.40;;;0.40;;
4943;SDS011;2487;52.224;11.006;2022-09-12T06:03:59;0.87;;;0.60;;
4943;SDS011;2487;52.224;11.006;2022-09-12T06:06:28;6.77;;;0.90;;
4943;SDS011;2487;52.224;11.006;2022-09-12T06:08:56;0.40;;;0.40;;
4943;SDS011;2487;52.224;11.006;2022-09-12T06:11:25;0.40;;;0.40;;
4943;SDS011;2487;52.224;11.006;2022-09-12T06:13:53;0.40;;;0.40;;
4943;SDS011;2487;52.224;11.006;2022-09-12T06:16:22;13.23;;;0.80;;
4943;SDS011;2487;52.224;11.006;2022-09-12T06:18:51;0.30;;;0.30;;
4943;SDS011;2487;52.224;11.006;2022-09-12T06:21:20;0.50;;;0.50;;
4943;SDS011;2487;52.224;11.006;2022-09-12T06:23:47;9.07;;;0.90;;
4943;SDS011;2487;52.224;11.006;2022-09-12T06:26:13;0.50;;;0.50;;
4943;SDS011;2487;52.224;11.006;2022-09-12T06:28:41;0.30;;;0.30;;
4943;SDS011;2487;52.224;11.006;2022-09-12T06:31:13;0.30;;;0.30;;
4943;SDS011;2487;52.224;11.006;2022-09-12T06:33:45;0.30;;;0.30;;
4943;SDS011;2487;52.224;11.006;2022-09-12T06:36:13;0.40;;;0.40;;
4943;SDS011;2487;52.224;11.006;2022-09-12T06:38:40;0.40;;;0.40;;
4943;SDS011;2487;52.224;11.006;2022-09-12T06:41:07;0.77;;;0.53;;
4943;SDS011;2487;52.224;11.006;2022-09-12T06:43:35;0.40;;;0.40;;
4943;SDS011;2487;52.224;11.006;2022-09-12T06:46:01;0.40;;;0.40;;
4943;SDS011;2487;52.224;11.006;2022-09-12T06:48:27;0.30;;;0.30;;
4943;SDS011;2487;52.224;11.006;2022-09-12T06:50:57;0.40;;;0.40;;
4943;SDS011;2487;52.224;11.006;2022-09-12T06:53:24;0.40;;;0.40;;
4943;SDS011;2487;52.224;11.006;2022-09-12T06:55:57;0.40;;;0.40;;
4943;SDS011;2487;52.224;11.006;2022-09-12T06:58:53;0.40;;;0.40;;
4943;SDS011;2487;52.224;11.006;2022-09-12T07:01:21;0.40;;;0.40;;
4943;SDS011;2487;52.224;11.006;2022-09-12T07:03:49;0.30;;;0.30;;
4943;SDS011;2487;52.224;11.006;2022-09-12T07:06:17;0.40;;;0.40;;
4943;SDS011;2487;52.224;11.006;2022-09-12T07:08:45;0.40;;;0.40;;
4943;SDS011;2487;52.224;11.006;2022-09-12T07:11:18;0.30;;;0.30;;
4943;SDS011;2487;52.224;11.006;2022-09-12T07:13:49;0.40;;;0.40;;
4943;SDS011;2487;52.224;11.006;2022-09-12T07:16:16;0.30;;;0.30;;
4943;SDS011;2487;52.224;11.006;2022-09-12T07:18:43;0.37;;;0.37;;
4943;SDS011;2487;52.224;11.006;2022-09-12T07:21:11;0.40;;;0.40;;
4943;SDS011;2487;52.224;11.006;2022-09-12T07:23:38;0.40;;;0.40;;
4943;SDS011;2487;52.224;11.006;2022-09-12T07:26:07;0.40;;;0.40;;
4943;SDS011;2487;52.224;11.006;2022-09-12T07:28:34;0.40;;;0.40;;
4943;SDS011;2487;52.224;11.006;2022-09-12T07:31:04;0.37;;;0.37;;
4943;SDS011;2487;52.224;11.006;2022-09-12T07:33:31;0.40;;;0.40;;
4943;SDS011;2487;52.224;11.006;2022-09-12T07:36:01;0.40;;;0.40;;
4943;SDS011;2487;52.224;11.006;2022-09-12T07:38:47;0.40;;;0.40;;
4943;SDS011;2487;52.224;11.006;2022-09-12T07:41:20;0.40;;;0.40;;
4943;SDS011;2487;52.224;11.006;2022-09-12T07:43:52;0.40;;;0.40;;
4943;SDS011;2487;52.224;11.006;2022-09-12T07:46:22;0.40;;;0.40;;
4943;SDS011;2487;52.224;11.006;2022-09-12T07:48:49;0.40;;;0.40;;
4943;SDS011;2487;52.224;11.006;2022-09-12T07:51:16;0.40;;;0.40;;
4943;SDS011;2487;52.224;11.006;2022-09-12T07:53:43;0.40;;;0.40;;
4943;SDS011;2487;52.224;11.006;2022-09-12T07:56:09;0.40;;;0.40;;
4943;SDS011;2487;52.224;11.006;2022-09-12T07:58:37;0.40;;;0.40;;
4943;SDS011;2487;52.224;11.006;2022-09-12T08:01:05;0.40;;;0.40;;
4943;SDS011;2487;52.224;11.006;2022-09-12T08:03:33;0.40;;;0.40;;
4943;SDS011;2487;52.224;11.006;2022-09-12T08:06:11;0.40;;;0.40;;
4943;SDS011;2487;52.224;11.006;2022-09-12T08:08:43;0.40;;;0.40;;
4943;SDS011;2487;52.224;11.006;2022-09-12T08:11:10;0.40;;;0.40;;
4943;SDS011;2487;52.224;11.006;2022-09-12T08:13:38;0.40;;;0.40;;
4943;SDS011;2487;52.224;11.006;2022-09-12T08:16:06;0.40;;;0.40;;
4943;SDS011;2487;52.224;11.006;2022-09-12T08:18:37;0.40;;;0.40;;
4943;SDS011;2487;52.224;11.006;2022-09-12T08:21:24;0.40;;;0.40;;
4943;SDS011;2487;52.224;11.006;2022-09-12T08:23:55;0.40;;;0.40;;
4943;SDS011;2487;52.224;11.006;2022-09-12T08:26:23;0.50;;;0.50;;
4943;SDS011;2487;52.224;11.006;2022-09-12T08:28:49;0.40;;;0.40;;
4943;SDS011;2487;52.224;11.006;2022-09-12T08:31:17;0.40;;;0.40;;
4943;SDS011;2487;52.224;11.006;2022-09-12T08:33:44;0.40;;;0.40;;
4943;SDS011;2487;52.224;11.006;2022-09-12T08:38:42;0.40;;;0.40;;
4943;SDS011;2487;52.224;11.006;2022-09-12T08:41:25;0.40;;;0.40;;
4943;SDS011;2487;52.224;11.006;2022-09-12T08:49:33;0.40;;;0.40;;
4943;SDS011;2487;52.224;11.006;2022-09-12T08:52:04;7.43;;;0.80;;
4943;SDS011;2487;52.224;11.006;2022-09-12T08:54:36;0.40;;;0.40;;
4943;SDS011;2487;52.224;11.006;2022-09-12T08:57:03;0.50;;;0.50;;
4943;SDS011;2487;52.224;11.006;2022-09-12T08:59:32;0.50;;;0.50;;
4943;SDS011;2487;52.224;11.006;2022-09-12T09:02:02;0.57;;;0.57;;
4943;SDS011;2487;52.224;11.006;2022-09-12T09:04:50;0.50;;;0.50;;
4943;SDS011;2487;52.224;11.006;2022-09-12T09:15:16;0.50;;;0.50;;
4943;SDS011;2487;52.224;11.006;2022-09-12T09:17:48;1.20;;;0.70;;
4943;SDS011;2487;52.224;11.006;2022-09-12T09:22:48;0.40;;;0.40;;
4943;SDS011;2487;52.224;11.006;2022-09-12T09:27:57;0.40;;;0.40;;
4943;SDS011;2487;52.224;11.006;2022-09-12T09:30:28;0.40;;;0.40;;
4943;SDS011;2487;52.224;11.006;2022-09-12T09:32:56;0.40;;;0.40;;
4943;SDS011;2487;52.224;11.006;2022-09-12T09:35:44;1.77;;;0.60;;
4943;SDS011;2487;52.224;11.006;2022-09-12T09:38:40;2.87;;;0.80;;
4943;SDS011;2487;52.224;11.006;2022-09-12T09:43:55;13.10;;;0.90;;
4943;SDS011;2487;52.224;11.006;2022-09-12T09:46:21;12.00;;;0.90;;
4943;SDS011;2487;52.224;11.006;2022-09-12T09:48:48;10.47;;;0.90;;
4943;SDS011;2487;52.224;11.006;2022-09-12T09:51:16;11.27;;;0.90;;
4943;SDS011;2487;52.224;11.006;2022-09-12T09:58:46;9.83;;;0.90;;
4943;SDS011;2487;52.224;11.006;2022-09-12T10:01:13;12.63;;;0.90;;
4943;SDS011;2487;52.224;11.006;2022-09-12T10:03:48;16.33;;;0.90;;
4943;SDS011;2487;52.224;11.006;2022-09-12T10:08:48;2.23;;;0.70;;
4943;SDS011;2487;52.224;11.006;2022-09-12T10:16:25;1.40;;;0.70;;
4943;SDS011;2487;52.224;11.006;2022-09-12T10:18:53;0.90;;;0.70;;
4943;SDS011;2487;52.224;11.006;2022-09-12T10:21:29;0.90;;;0.70;;
4943;SDS011;2487;52.224;11.006;2022-09-12T10:26:39;0.90;;;0.70;;
4943;SDS011;2487;52.224;11.006;2022-09-12T10:29:10;0.90;;;0.70;;
4943;SDS011;2487;52.224;11.006;2022-09-12T10:31:56;0.90;;;0.70;;
4943;SDS011;2487;52.224;11.006;2022-09-12T10:37:03;0.90;;;0.67;;
4943;SDS011;2487;52.224;11.006;2022-09-12T10:39:31;0.50;;;0.50;;
4943;SDS011;2487;52.224;11.006;2022-09-12T10:41:59;0.60;;;0.60;;
4943;SDS011;2487;52.224;11.006;2022-09-12T10:44:26;1.00;;;0.70;;
4943;SDS011;2487;52.224;11.006;2022-09-12T10:46:55;1.00;;;0.70;;
4943;SDS011;2487;52.224;11.006;2022-09-12T10:49:23;1.00;;;0.70;;
4943;SDS011;2487;52.224;11.006;2022-09-12T10:51:55;1.00;;;0.70;;
4943;SDS011;2487;52.224;11.006;2022-09-12T10:54:25;5.37;;;0.80;;
4943;SDS011;2487;52.224;11.006;2022-09-12T10:57:14;34.43;;;1.00;;
4943;SDS011;2487;52.224;11.006;2022-09-12T11:02:58;8.50;;;0.80;;
4943;SDS011;2487;52.224;11.006;2022-09-12T11:14:09;6.63;;;0.90;;
4943;SDS011;2487;52.224;11.006;2022-09-12T11:41:08;9.47;;;0.90;;
4943;SDS011;2487;52.224;11.006;2022-09-12T11:59:57;8.93;;;0.90;;
4943;SDS011;2487;52.224;11.006;2022-09-12T12:10:22;6.10;;;0.80;;
4943;SDS011;2487;52.224;11.006;2022-09-12T12:12:51;5.97;;;0.80;;
4943;SDS011;2487;52.224;11.006;2022-09-12T12:15:19;6.63;;;0.90;;
4943;SDS011;2487;52.224;11.006;2022-09-12T12:17:58;6.20;;;0.80;;
4943;SDS011;2487;52.224;11.006;2022-09-12T12:20:25;6.10;;;0.80;;
4943;SDS011;2487;52.224;11.006;2022-09-12T12:22:53;6.17;;;0.80;;
4943;SDS011;2487;52.224;11.006;2022-09-12T12:25:40;6.20;;;0.90;;
4943;SDS011;2487;52.224;11.006;2022-09-12T12:28:40;6.40;;;0.80;;
4943;SDS011;2487;52.224;11.006;2022-09-12T12:31:01;6.13;;;0.80;;
4943;SDS011;2487;52.224;11.006;2022-09-12T12:38:31;8.23;;;0.87;;
4943;SDS011;2487;52.224;11.006;2022-09-12T12:43:40;17.80;;;0.90;;
4943;SDS011;2487;52.224;11.006;2022-09-12T12:46:08;18.70;;;0.93;;
4943;SDS011;2487;52.224;11.006;2022-09-12T12:49:22;15.57;;;0.90;;
4943;SDS011;2487;52.224;11.006;2022-09-12T12:54:27;14.93;;;0.90;;
4943;SDS011;2487;52.224;11.006;2022-09-12T12:57:00;14.50;;;0.90;;
4943;SDS011;2487;52.224;11.006;2022-09-12T12:59:29;7.53;;;0.90;;
4943;SDS011;2487;52.224;11.006;2022-09-12T13:01:55;5.83;;;0.80;;
4943;SDS011;2487;52.224;11.006;2022-09-12T13:04:25;7.70;;;0.90;;
4943;SDS011;2487;52.224;11.006;2022-09-12T13:17:17;6.23;;;0.80;;
4943;SDS011;2487;52.224;11.006;2022-09-12T13:19:47;5.80;;;0.90;;
4943;SDS011;2487;52.224;11.006;2022-09-12T13:22:14;6.40;;;0.80;;
4943;SDS011;2487;52.224;11.006;2022-09-12T13:24:43;5.43;;;0.80;;
4943;SDS011;2487;52.224;11.006;2022-09-12T13:27:16;7.30;;;0.90;;
4943;SDS011;2487;52.224;11.006;2022-09-12T13:29:44;7.10;;;0.90;;
4943;SDS011;2487;52.224;11.006;2022-09-12T13:32:09;7.00;;;0.80;;
4943;SDS011;2487;52.224;11.006;2022-09-12T13:34:59;7.20;;;1.00;;
4943;SDS011;2487;52.224;11.006;2022-09-12T13:37:33;7.83;;;0.90;;
4943;SDS011;2487;52.224;11.006;2022-09-12T13:43:07;8.27;;;0.90;;
4943;SDS011;2487;52.224;11.006;2022-09-12T13:45:39;9.97;;;0.90;;
4943;SDS011;2487;52.224;11.006;2022-09-12T13:48:09;9.00;;;0.90;;
4943;SDS011;2487;52.224;11.006;2022-09-12T13:50:54;9.53;;;1.00;;
4943;SDS011;2487;52.224;11.006;2022-09-12T13:53:24;9.00;;;1.03;;
4943;SDS011;2487;52.224;11.006;2022-09-12T13:55:55;8.40;;;1.00;;
4943;SDS011;2487;52.224;11.006;2022-09-12T14:06:48;11.43;;;0.90;;
4943;SDS011;2487;52.224;11.006;2022-09-12T14:11:55;12.00;;;0.90;;
4943;SDS011;2487;52.224;11.006;2022-09-12T14:14:25;12.10;;;0.90;;
4943;SDS011;2487;52.224;11.006;2022-09-12T14:16:57;12.50;;;0.90;;
4943;SDS011;2487;52.224;11.006;2022-09-12T14:19:24;12.77;;;1.93;;
4943;SDS011;2487;52.224;11.006;2022-09-12T14:21:51;5.50;;;0.80;;
4943;SDS011;2487;52.224;11.006;2022-09-12T14:24:18;1.37;;;0.47;;
4943;SDS011;2487;52.224;11.006;2022-09-12T14:26:47;0.47;;;0.47;;
4943;SDS011;2487;52.224;11.006;2022-09-12T14:29:15;0.50;;;0.50;;
4943;SDS011;2487;52.224;11.006;2022-09-12T14:32:02;0.40;;;0.40;;
4943;SDS011;2487;52.224;11.006;2022-09-12T14:34:29;0.40;;;0.40;;
4943;SDS011;2487;52.224;11.006;2022-09-12T14:36:55;0.40;;;0.40;;
4943;SDS011;2487;52.224;11.006;2022-09-12T14:42:04;0.40;;;0.40;;
4943;SDS011;2487;52.224;11.006;2022-09-12T14:44:30;0.40;;;0.40;;
4943;SDS011;2487;52.224;11.006;2022-09-12T14:47:00;13.50;;;4.40;;
4943;SDS011;2487;52.224;11.006;2022-09-12T14:49:43;4.87;;;0.80;;
4943;SDS011;2487;52.224;11.006;2022-09-12T14:57:36;13.80;;;0.90;;
4943;SDS011;2487;52.224;11.006;2022-09-12T15:00:08;11.20;;;0.90;;
4943;SDS011;2487;52.224;11.006;2022-09-12T15:02:38;6.13;;;0.80;;
4943;SDS011;2487;52.224;11.006;2022-09-12T15:07:32;0.80;;;0.70;;
4943;SDS011;2487;52.224;11.006;2022-09-12T15:10:04;0.80;;;0.60;;
4943;SDS011;2487;52.224;11.006;2022-09-12T15:12:38;0.50;;;0.50;;
4943;SDS011;2487;52.224;11.006;2022-09-12T15:15:14;0.50;;;0.50;;
4943;SDS011;2487;52.224;11.006;2022-09-12T15:17:41;0.80;;;0.70;;
4943;SDS011;2487;52.224;11.006;2022-09-12T15:20:07;0.90;;;0.70;;
4943;SDS011;2487;52.224;11.006;2022-09-12T15:22:34;0.50;;;0.50;;
4943;SDS011;2487;52.224;11.006;2022-09-12T15:25:02;0.40;;;0.40;;
4943;SDS011;2487;52.224;11.006;2022-09-12T15:27:28;0.40;;;0.40;;
4943;SDS011;2487;52.224;11.006;2022-09-12T15:29:54;0.50;;;0.50;;
4943;SDS011;2487;52.224;11.006;2022-09-12T15:32:28;0.40;;;0.40;;
4943;SDS011;2487;52.224;11.006;2022-09-12T15:34:54;0.40;;;0.40;;
4943;SDS011;2487;52.224;11.006;2022-09-12T15:37:21;0.70;;;0.70;;
4943;SDS011;2487;52.224;11.006;2022-09-12T15:39:48;0.50;;;0.50;;
4943;SDS011;2487;52.224;11.006;2022-09-12T15:42:15;0.50;;;0.50;;
4943;SDS011;2487;52.224;11.006;2022-09-12T15:44:42;0.40;;;0.40;;
4943;SDS011;2487;52.224;11.006;2022-09-12T15:47:09;8.03;;;2.37;;
4943;SDS011;2487;52.224;11.006;2022-09-12T15:49:36;2.33;;;0.60;;
4943;SDS011;2487;52.224;11.006;2022-09-12T15:52:02;0.40;;;0.40;;
4943;SDS011;2487;52.224;11.006;2022-09-12T15:54:28;0.40;;;0.40;;
4943;SDS011;2487;52.224;11.006;2022-09-12T15:56:54;0.40;;;0.40;;
4943;SDS011;2487;52.224;11.006;2022-09-12T15:59:19;22.90;;;1.20;;
4943;SDS011;2487;52.224;11.006;2022-09-12T16:01:45;0.40;;;0.40;;
4943;SDS011;2487;52.224;11.006;2022-09-12T16:04:21;0.40;;;0.40;;
4943;SDS011;2487;52.224;11.006;2022-09-12T16:06:51;0.40;;;0.40;;
4943;SDS011;2487;52.224;11.006;2022-09-12T16:09:22;0.40;;;0.40;;
4943;SDS011;2487;52.224;11.006;2022-09-12T16:11:48;0.40;;;0.40;;
4943;SDS011;2487;52.224;11.006;2022-09-12T16:14:14;0.50;;;0.50;;
4943;SDS011;2487;52.224;11.006;2022-09-12T16:16:41;0.40;;;0.40;;
4943;SDS011;2487;52.224;11.006;2022-09-12T16:19:08;0.40;;;0.40;;
4943;SDS011;2487;52.224;11.006;2022-09-12T16:21:35;0.40;;;0.40;;
4943;SDS011;2487;52.224;11.006;2022-09-12T16:24:01;0.40;;;0.40;;
4943;SDS011;2487;52.224;11.006;2022-09-12T16:26:27;0.40;;;0.40;;
4943;SDS011;2487;52.224;11.006;2022-09-12T16:28:56;0.40;;;0.40;;
4943;SDS011;2487;52.224;11.006;2022-09-12T16:31:23;0.40;;;0.40;;
4943;SDS011;2487;52.224;11.006;2022-09-12T16:33:50;0.40;;;0.40;;
4943;SDS011;2487;52.224;11.006;2022-09-12T16:36:19;0.40;;;0.40;;
4943;SDS011;2487;52.224;11.006;2022-09-12T16:38:49;0.40;;;0.40;;
4943;SDS011;2487;52.224;11.006;2022-09-12T16:41:17;0.40;;;0.40;;
4943;SDS011;2487;52.224;11.006;2022-09-12T16:43:44;0.40;;;0.40;;
4943;SDS011;2487;52.224;11.006;2022-09-12T16:48:45;0.40;;;0.40;;
4943;SDS011;2487;52.224;11.006;2022-09-12T16:51:16;0.40;;;0.40;;
4943;SDS011;2487;52.224;11.006;2022-09-12T16:53:44;0.40;;;0.40;;
4943;SDS011;2487;52.224;11.006;2022-09-12T16:56:10;0.40;;;0.40;;
4943;SDS011;2487;52.224;11.006;2022-09-12T16:58:38;0.50;;;0.50;;
4943;SDS011;2487;52.224;11.006;2022-09-12T17:03:31;0.40;;;0.40;;
4943;SDS011;2487;52.224;11.006;2022-09-12T17:06:01;0.40;;;0.40;;
4943;SDS011;2487;52.224;11.006;2022-09-12T17:08:28;7.60;;;0.90;;
4943;SDS011;2487;52.224;11.006;2022-09-12T17:11:02;12.70;;;0.90;;
4943;SDS011;2487;52.224;11.006;2022-09-12T17:13:29;0.40;;;0.40;;
4943;SDS011;2487;52.224;11.006;2022-09-12T17:15:55;0.40;;;0.40;;
4943;SDS011;2487;52.224;11.006;2022-09-12T17:18:21;0.40;;;0.40;;
4943;SDS011;2487;52.224;11.006;2022-09-12T17:20:48;0.40;;;0.40;;
4943;SDS011;2487;52.224;11.006;2022-09-12T17:23:14;0.40;;;0.40;;
4943;SDS011;2487;52.224;11.006;2022-09-12T17:25:45;0.40;;;0.40;;
4943;SDS011;2487;52.224;11.006;2022-09-12T17:28:15;0.40;;;0.40;;
4943;SDS011;2487;52.224;11.006;2022-09-12T17:30:40;23.93;;;1.00;;
4943;SDS011;2487;52.224;11.006;2022-09-12T17:33:06;39.50;;;1.73;;
4943;SDS011;2487;52.224;11.006;2022-09-12T17:35:35;37.20;;;1.10;;
4943;SDS011;2487;52.224;11.006;2022-09-12T17:38:03;36.50;;;1.10;;
4943;SDS011;2487;52.224;11.006;2022-09-12T17:40:29;35.97;;;1.10;;
4943;SDS011;2487;52.224;11.006;2022-09-12T17:42:56;36.43;;;1.10;;
4943;SDS011;2487;52.224;11.006;2022-09-12T17:45:22;36.97;;;1.10;;
4943;SDS011;2487;52.224;11.006;2022-09-12T17:47:48;8.90;;;0.90;;
4943;SDS011;2487;52.224;11.006;2022-09-12T17:50:14;0.83;;;0.50;;
4943;SDS011;2487;52.224;11.006;2022-09-12T17:52:43;19.33;;;1.00;;
4943;SDS011;2487;52.224;11.006;2022-09-12T17:55:09;0.40;;;0.40;;
4943;SDS011;2487;52.224;11.006;2022-09-12T17:57:59;2.57;;;0.83;;
4943;SDS011;2487;52.224;11.006;2022-09-12T18:00:25;0.40;;;0.40;;
4943;SDS011;2487;52.224;11.006;2022-09-12T18:03:12;12.97;;;2.30;;
4943;SDS011;2487;52.224;11.006;2022-09-12T18:05:45;0.40;;;0.40;;
4943;SDS011;2487;52.224;11.006;2022-09-12T18:08:18;0.97;;;0.40;;
4943;SDS011;2487;52.224;11.006;2022-09-12T18:10:45;0.40;;;0.40;;
4943;SDS011;2487;52.224;11.006;2022-09-12T18:13:11;2.23;;;0.53;;
4943;SDS011;2487;52.224;11.006;2022-09-12T18:15:37;1.93;;;0.57;;
4943;SDS011;2487;52.224;11.006;2022-09-12T18:18:03;16.20;;;1.00;;
4943;SDS011;2487;52.224;11.006;2022-09-12T18:20:29;0.40;;;0.40;;
4943;SDS011;2487;52.224;11.006;2022-09-12T18:22:56;0.40;;;0.40;;
4943;SDS011;2487;52.224;11.006;2022-09-12T18:25:21;0.40;;;0.40;;
4943;SDS011;2487;52.224;11.006;2022-09-12T18:27:47;0.40;;;0.40;;
4943;SDS011;2487;52.224;11.006;2022-09-12T18:30:13;0.40;;;0.40;;
4943;SDS011;2487;52.224;11.006;2022-09-12T18:32:41;0.40;;;0.40;;
4943;SDS011;2487;52.224;11.006;2022-09-12T18:35:07;0.40;;;0.40;;
4943;SDS011;2487;52.224;11.006;2022-09-12T18:37:33;0.40;;;0.40;;
4943;SDS011;2487;52.224;11.006;2022-09-12T18:39:59;0.40;;;0.40;;
4943;SDS011;2487;52.224;11.006;2022-09-12T18:42:25;0.40;;;0.40;;
4943;SDS011;2487;52.224;11.006;2022-09-12T18:44:50;0.40;;;0.40;;